Main page
METAR-TAF:

METAR-TAF

Airports :

León Airport

León, Spain

latitude: 42-35N, longitude: 005-39W, elevation: 926 m

Current weather observation

The report was made 19 minutes ago, at 21:00 UTC
Wind 2 kt from the Northwest
Temperature 0°C
Humidity 100%
Pressure 1024 hPa
Visibility 10 km or more
Few clouds at a height of 4200 ft

METAR: LELN 102100Z AUTO 31002KT 9999 FEW042 00/00 Q1024

Time: 22:19 (21:19 UTC)

Forecast

The report was made 4 hours and 19 minutes ago, at 17:00 UTC
Forecast valid from 10 at 18 UTC to 11 at 03 UTC
Wind 5 kt from variable directions
Visibility 10 km or more
no clouds below 1500 m and no cumulonimbus
Probability 40% :
Temporary
from 10 at 20 UTC to 10 at 24 UTC
Visibility: 2000 m
Broken clouds at a height of 1400 ft
mist

TAF: LELN 101700Z 1018/1103 VRB05KT CAVOK PROB40 TEMPO 1020/1024 2000 BR BKN014

Weather observations and forecasts of more than 4000 airports (METAR and TAF reports).

The available stations are represented by yellow and red dots on the map.

Hover mouse over dot to see the name of the station.

Then click to see weather observations and forecasts.

To change the map : click on the green buttons with a black cross to zoom in, on the green button with a dash to zoom out, or on the green arrows for adjacent maps.


METAR-TAF: